sensor_id;sensor_type;location;lat;lon;timestamp;pressure;altitude;pressure_sealevel;temperature;humidity
68107;BME280;54892;47.488;19.026;2023-04-29T00:01:34;99904.09;;;12.03;89.94
68107;BME280;54892;47.488;19.026;2023-04-29T00:04:38;99910.97;;;12.05;89.94
68107;BME280;54892;47.488;19.026;2023-04-29T00:07:42;99913.09;;;12.08;90.20
68107;BME280;54892;47.488;19.026;2023-04-29T00:10:45;99912.56;;;12.06;89.81
68107;BME280;54892;47.488;19.026;2023-04-29T00:13:48;99903.84;;;12.00;90.29
68107;BME280;54892;47.488;19.026;2023-04-29T00:16:53;99908.84;;;12.01;90.52
68107;BME280;54892;47.488;19.026;2023-04-29T00:19:56;99905.16;;;12.08;90.34
68107;BME280;54892;47.488;19.026;2023-04-29T00:22:58;99904.63;;;12.06;90.75
68107;BME280;54892;47.488;19.026;2023-04-29T00:26:01;99898.81;;;12.09;89.61
68107;BME280;54892;47.488;19.026;2023-04-29T00:29:04;99899.34;;;12.11;89.16
68107;BME280;54892;47.488;19.026;2023-04-29T00:32:08;99893.00;;;12.07;89.47
68107;BME280;54892;47.488;19.026;2023-04-29T00:35:11;99883.47;;;12.00;89.92
68107;BME280;54892;47.488;19.026;2023-04-29T00:38:14;99891.91;;;11.87;90.17
68107;BME280;54892;47.488;19.026;2023-04-29T00:41:17;99889.28;;;11.87;89.00
68107;BME280;54892;47.488;19.026;2023-04-29T00:44:20;99897.50;;;11.91;89.17
68107;BME280;54892;47.488;19.026;2023-04-29T00:47:24;99905.12;;;11.87;89.70
68107;BME280;54892;47.488;19.026;2023-04-29T00:50:27;99904.09;;;11.88;89.83
68107;BME280;54892;47.488;19.026;2023-04-29T00:53:31;99903.84;;;11.90;89.64
68107;BME280;54892;47.488;19.026;2023-04-29T00:56:34;99897.75;;;11.89;89.82
68107;BME280;54892;47.488;19.026;2023-04-29T00:59:37;99896.69;;;11.85;90.37
68107;BME280;54892;47.488;19.026;2023-04-29T01:02:42;99902.50;;;11.92;89.69
68107;BME280;54892;47.488;19.026;2023-04-29T01:05:46;99901.44;;;11.88;90.30
68107;BME280;54892;47.488;19.026;2023-04-29T01:08:55;99891.41;;;11.80;90.35
68107;BME280;54892;47.488;19.026;2023-04-29T01:12:03;99896.69;;;11.75;90.36
68107;BME280;54892;47.488;19.026;2023-04-29T01:15:09;99894.31;;;11.78;89.66
68107;BME280;54892;47.488;19.026;2023-04-29T01:18:17;99901.97;;;11.75;89.10
68107;BME280;54892;47.488;19.026;2023-04-29T01:21:23;99899.31;;;11.69;89.37
68107;BME280;54892;47.488;19.026;2023-04-29T01:24:27;99898.53;;;11.69;90.06
68107;BME280;54892;47.488;19.026;2023-04-29T01:27:30;99886.66;;;11.77;89.66
68107;BME280;54892;47.488;19.026;2023-04-29T01:30:37;99893.28;;;11.74;89.64
68107;BME280;54892;47.488;19.026;2023-04-29T01:33:46;99895.09;;;11.79;89.63
68107;BME280;54892;47.488;19.026;2023-04-29T01:36:52;99891.41;;;11.75;90.59
68107;BME280;54892;47.488;19.026;2023-04-29T01:39:59;99886.09;;;11.69;90.90
68107;BME280;54892;47.488;19.026;2023-04-29T01:43:07;99886.66;;;11.66;90.36
68107;BME280;54892;47.488;19.026;2023-04-29T01:46:12;99885.06;;;11.55;84.91
68107;BME280;54892;47.488;19.026;2023-04-29T01:49:19;99879.78;;;11.50;78.60
68107;BME280;54892;47.488;19.026;2023-04-29T01:52:22;99879.78;;;11.45;78.05
68107;BME280;54892;47.488;19.026;2023-04-29T01:55:27;99878.72;;;11.46;78.25
68107;BME280;54892;47.488;19.026;2023-04-29T01:58:29;99880.28;;;11.41;75.10
68107;BME280;54892;47.488;19.026;2023-04-29T02:01:32;99885.03;;;11.39;72.91
68107;BME280;54892;47.488;19.026;2023-04-29T02:04:36;99888.22;;;11.41;72.25
68107;BME280;54892;47.488;19.026;2023-04-29T02:07:39;99889.00;;;11.47;73.17
68107;BME280;54892;47.488;19.026;2023-04-29T02:10:51;99882.69;;;11.43;72.40
68107;BME280;54892;47.488;19.026;2023-04-29T02:13:54;99872.91;;;11.43;71.31
68107;BME280;54892;47.488;19.026;2023-04-29T02:16:56;99877.13;;;11.45;70.51
68107;BME280;54892;47.488;19.026;2023-04-29T02:19:59;99885.56;;;11.41;68.08
68107;BME280;54892;47.488;19.026;2023-04-29T02:23:02;99885.59;;;11.36;66.71
68107;BME280;54892;47.488;19.026;2023-04-29T02:26:07;99877.94;;;11.40;65.73
68107;BME280;54892;47.488;19.026;2023-04-29T02:29:11;99876.59;;;11.42;65.90
68107;BME280;54892;47.488;19.026;2023-04-29T02:32:14;99876.59;;;11.42;67.20
68107;BME280;54892;47.488;19.026;2023-04-29T02:35:20;99881.09;;;11.42;67.48
68107;BME280;54892;47.488;19.026;2023-04-29T02:38:23;99870.25;;;11.43;68.42
68107;BME280;54892;47.488;19.026;2023-04-29T02:41:27;99875.53;;;11.43;64.55
68107;BME280;54892;47.488;19.026;2023-04-29T02:44:30;99871.59;;;11.41;64.77
68107;BME280;54892;47.488;19.026;2023-04-29T02:47:33;99862.84;;;11.46;66.15
68107;BME280;54892;47.488;19.026;2023-04-29T02:50:37;99857.84;;;11.49;65.84
68107;BME280;54892;47.488;19.026;2023-04-29T02:53:40;99859.16;;;11.52;64.16
68107;BME280;54892;47.488;19.026;2023-04-29T02:56:44;99863.66;;;11.56;64.86
68107;BME280;54892;47.488;19.026;2023-04-29T02:59:47;99864.19;;;11.53;65.98
68107;BME280;54892;47.488;19.026;2023-04-29T03:02:50;99860.72;;;11.53;63.66
68107;BME280;54892;47.488;19.026;2023-04-29T03:05:53;99869.72;;;11.57;65.58
68107;BME280;54892;47.488;19.026;2023-04-29T03:08:56;99866.81;;;11.53;64.80
68107;BME280;54892;47.488;19.026;2023-04-29T03:12:01;99864.69;;;11.50;64.38
68107;BME280;54892;47.488;19.026;2023-04-29T03:15:05;99866.03;;;11.58;65.50
68107;BME280;54892;47.488;19.026;2023-04-29T03:18:08;99862.88;;;11.51;63.81
68107;BME280;54892;47.488;19.026;2023-04-29T03:21:11;99860.72;;;11.53;62.08
68107;BME280;54892;47.488;19.026;2023-04-29T03:24:14;99863.94;;;11.50;60.99
68107;BME280;54892;47.488;19.026;2023-04-29T03:27:18;99869.22;;;11.50;61.83
68107;BME280;54892;47.488;19.026;2023-04-29T03:30:21;99861.81;;;11.52;63.45
68107;BME280;54892;47.488;19.026;2023-04-29T03:33:24;99863.94;;;11.50;62.46
68107;BME280;54892;47.488;19.026;2023-04-29T03:36:27;99857.59;;;11.51;60.24
68107;BME280;54892;47.488;19.026;2023-04-29T03:39:30;99856.25;;;11.48;61.81
68107;BME280;54892;47.488;19.026;2023-04-29T03:42:35;99862.34;;;11.49;60.35
68107;BME280;54892;47.488;19.026;2023-04-29T03:45:37;99866.56;;;11.50;61.48
68107;BME280;54892;47.488;19.026;2023-04-29T03:48:40;99871.31;;;11.58;61.83
68107;BME280;54892;47.488;19.026;2023-04-29T03:51:43;99876.59;;;11.58;61.37
68107;BME280;54892;47.488;19.026;2023-04-29T03:54:47;99876.59;;;11.58;62.08
68107;BME280;54892;47.488;19.026;2023-04-29T03:57:51;99885.06;;;11.55;62.13
68107;BME280;54892;47.488;19.026;2023-04-29T04:00:54;99886.66;;;11.51;63.08
68107;BME280;54892;47.488;19.026;2023-04-29T04:03:57;99890.59;;;11.48;64.15
68107;BME280;54892;47.488;19.026;2023-04-29T04:07:00;99884.53;;;11.53;60.63
68107;BME280;54892;47.488;19.026;2023-04-29T04:10:04;99891.94;;;11.51;62.52
68107;BME280;54892;47.488;19.026;2023-04-29T04:13:09;99901.47;;;11.52;62.70
68107;BME280;54892;47.488;19.026;2023-04-29T04:16:12;99892.19;;;11.49;64.61
68107;BME280;54892;47.488;19.026;2023-04-29T04:19:14;99900.66;;;11.51;65.24
68107;BME280;54892;47.488;19.026;2023-04-29T04:22:17;99895.59;;;11.39;63.84
68107;BME280;54892;47.488;19.026;2023-04-29T04:25:20;99899.31;;;11.43;65.23
68107;BME280;54892;47.488;19.026;2023-04-29T04:28:25;99895.59;;;11.39;65.90
68107;BME280;54892;47.488;19.026;2023-04-29T04:31:28;99897.97;;;11.31;65.35
68107;BME280;54892;47.488;19.026;2023-04-29T04:34:31;99903.28;;;11.36;64.26
68107;BME280;54892;47.488;19.026;2023-04-29T04:37:34;99903.25;;;11.31;64.64
68107;BME280;54892;47.488;19.026;2023-04-29T04:40:39;99908.56;;;11.36;62.50
68107;BME280;54892;47.488;19.026;2023-04-29T04:43:43;99900.34;;;11.27;63.23
68107;BME280;54892;47.488;19.026;2023-04-29T04:46:46;99896.66;;;11.28;64.40
68107;BME280;54892;47.488;19.026;2023-04-29T04:49:49;99897.72;;;11.32;63.31
68107;BME280;54892;47.488;19.026;2023-04-29T04:52:53;99899.31;;;11.33;61.96
68107;BME280;54892;47.488;19.026;2023-04-29T04:55:59;99897.47;;;11.34;62.23
68107;BME280;54892;47.488;19.026;2023-04-29T04:59:03;99898.25;;;11.34;61.89
68107;BME280;54892;47.488;19.026;2023-04-29T05:02:06;99896.16;;;11.31;63.46
68107;BME280;54892;47.488;19.026;2023-04-29T05:05:09;99884.28;;;11.44;62.76
68107;BME280;54892;47.488;19.026;2023-04-29T05:08:12;99877.38;;;11.48;61.85
68107;BME280;54892;47.488;19.026;2023-04-29T05:11:16;99887.16;;;11.53;62.13
68107;BME280;54892;47.488;19.026;2023-04-29T05:14:21;99889.81;;;11.73;62.99
68107;BME280;54892;47.488;19.026;2023-04-29T05:17:24;99893.25;;;11.79;61.59
68107;BME280;54892;47.488;19.026;2023-04-29T05:20:27;99888.75;;;11.80;62.19
68107;BME280;54892;47.488;19.026;2023-04-29T05:23:30;99893.78;;;11.81;60.22
68107;BME280;54892;47.488;19.026;2023-04-29T05:26:33;99886.13;;;11.80;59.81
68107;BME280;54892;47.488;19.026;2023-04-29T05:29:37;99892.72;;;11.77;58.60
68107;BME280;54892;47.488;19.026;2023-04-29T05:32:40;99895.91;;;11.64;58.76
68107;BME280;54892;47.488;19.026;2023-04-29T05:35:43;99895.91;;;11.69;59.13
68107;BME280;54892;47.488;19.026;2023-04-29T05:38:46;99891.94;;;11.66;58.98
68107;BME280;54892;47.488;19.026;2023-04-29T05:41:49;99893.50;;;11.72;58.20
68107;BME280;54892;47.488;19.026;2023-04-29T05:44:53;99897.47;;;11.65;58.66
68107;BME280;54892;47.488;19.026;2023-04-29T05:47:56;99901.97;;;11.69;59.17
68107;BME280;54892;47.488;19.026;2023-04-29T05:50:59;99902.50;;;11.71;59.70
68107;BME280;54892;47.488;19.026;2023-04-29T05:54:02;99909.91;;;11.69;58.83
68107;BME280;54892;47.488;19.026;2023-04-29T05:57:05;99901.72;;;11.66;59.53
68107;BME280;54892;47.488;19.026;2023-04-29T06:00:10;99900.13;;;11.65;60.10
68107;BME280;54892;47.488;19.026;2023-04-29T06:03:13;99901.97;;;11.69;59.87
68107;BME280;54892;47.488;19.026;2023-04-29T06:06:17;99896.69;;;11.75;59.78
68107;BME280;54892;47.488;19.026;2023-04-29T06:09:20;99902.53;;;11.82;59.93
68107;BME280;54892;47.488;19.026;2023-04-29T06:12:27;99901.97;;;11.90;59.49
68107;BME280;54892;47.488;19.026;2023-04-29T06:15:32;99906.22;;;12.01;59.21
68107;BME280;54892;47.488;19.026;2023-04-29T06:18:36;99907.53;;;12.14;59.17
68107;BME280;54892;47.488;19.026;2023-04-29T06:21:39;99910.97;;;11.99;56.98
68107;BME280;54892;47.488;19.026;2023-04-29T06:24:42;99922.38;;;12.05;56.50
68107;BME280;54892;47.488;19.026;2023-04-29T06:27:45;99916.81;;;12.12;55.97
68107;BME280;54892;47.488;19.026;2023-04-29T06:30:49;99917.06;;;12.05;56.77
68107;BME280;54892;47.488;19.026;2023-04-29T06:33:52;99920.25;;;12.02;57.99
68107;BME280;54892;47.488;19.026;2023-04-29T06:36:55;99920.25;;;12.02;57.87
68107;BME280;54892;47.488;19.026;2023-04-29T06:39:58;99917.31;;;12.09;57.60
68107;BME280;54892;47.488;19.026;2023-04-29T06:43:01;99914.94;;;12.07;58.51
68107;BME280;54892;47.488;19.026;2023-04-29T06:46:06;99908.87;;;12.12;58.41
68107;BME280;54892;47.488;19.026;2023-04-29T06:49:09;99917.31;;;12.24;57.09
68107;BME280;54892;47.488;19.026;2023-04-29T06:52:12;99913.09;;;12.13;57.31
68107;BME280;54892;47.488;19.026;2023-04-29T06:55:15;99913.34;;;12.16;56.80
68107;BME280;54892;47.488;19.026;2023-04-29T06:58:18;99915.72;;;12.23;57.18
68107;BME280;54892;47.488;19.026;2023-04-29T07:01:22;99929.19;;;12.27;56.84
68107;BME280;54892;47.488;19.026;2023-04-29T07:04:25;99931.59;;;12.23;57.29
68107;BME280;54892;47.488;19.026;2023-04-29T07:07:28;99929.72;;;12.24;56.98
68107;BME280;54892;47.488;19.026;2023-04-29T07:10:30;99930.53;;;12.19;56.02
68107;BME280;54892;47.488;19.026;2023-04-29T07:13:33;99927.63;;;12.15;56.88
68107;BME280;54892;47.488;19.026;2023-04-29T07:16:38;99918.63;;;12.16;56.42
68107;BME280;54892;47.488;19.026;2023-04-29T07:19:40;99919.44;;;12.12;55.52
68107;BME280;54892;47.488;19.026;2023-04-29T07:22:43;99919.44;;;12.07;56.24
68107;BME280;54892;47.488;19.026;2023-04-29T07:25:46;99926.81;;;12.15;56.18
68107;BME280;54892;47.488;19.026;2023-04-29T07:28:49;99931.87;;;12.22;55.84
68107;BME280;54892;47.488;19.026;2023-04-29T07:31:53;99927.34;;;12.27;55.56
68107;BME280;54892;47.488;19.026;2023-04-29T07:34:56;99924.44;;;12.29;55.49
68107;BME280;54892;47.488;19.026;2023-04-29T07:37:59;99920.97;;;12.39;55.27
68107;BME280;54892;47.488;19.026;2023-04-29T07:41:02;99919.09;;;12.39;54.77
68107;BME280;54892;47.488;19.026;2023-04-29T07:44:06;99914.03;;;12.58;54.19
68107;BME280;54892;47.488;19.026;2023-04-29T07:47:10;99914.81;;;12.59;54.43
68107;BME280;54892;47.488;19.026;2023-04-29T07:50:13;99920.03;;;12.79;55.44
68107;BME280;54892;47.488;19.026;2023-04-29T07:53:16;99923.16;;;12.92;54.51
68107;BME280;54892;47.488;19.026;2023-04-29T07:56:20;99930.81;;;12.99;52.86
68107;BME280;54892;47.488;19.026;2023-04-29T07:59:23;99934.28;;;12.99;51.51
68107;BME280;54892;47.488;19.026;2023-04-29T08:02:27;99936.22;;;13.28;51.88
68107;BME280;54892;47.488;19.026;2023-04-29T08:05:30;99937.28;;;13.27;51.47
68107;BME280;54892;47.488;19.026;2023-04-29T08:08:34;99935.94;;;13.30;52.36
68107;BME280;54892;47.488;19.026;2023-04-29T08:11:37;99939.03;;;13.47;51.47
68107;BME280;54892;47.488;19.026;2023-04-29T08:14:40;99932.06;;;13.57;51.44
68107;BME280;54892;47.488;19.026;2023-04-29T08:17:45;99945.00;;;13.68;51.48
68107;BME280;54892;47.488;19.026;2023-04-29T08:20:48;99939.47;;;13.94;52.42
68107;BME280;54892;47.488;19.026;2023-04-29T08:23:51;99938.53;;;13.80;51.35
68107;BME280;54892;47.488;19.026;2023-04-29T08:26:56;99945.69;;;13.84;50.79
68107;BME280;54892;47.488;19.026;2023-04-29T08:30:00;99932.97;;;13.81;50.86
68107;BME280;54892;47.488;19.026;2023-04-29T08:33:04;99934.50;;;13.88;50.09
68107;BME280;54892;47.488;19.026;2023-04-29T08:36:07;99943.81;;;13.85;50.19
68107;BME280;54892;47.488;19.026;2023-04-29T08:39:10;99936.28;;;13.63;51.13
68107;BME280;54892;47.488;19.026;2023-04-29T08:42:13;99940.72;;;13.73;50.62
68107;BME280;54892;47.488;19.026;2023-04-29T08:45:16;99945.69;;;13.84;51.23
68107;BME280;54892;47.488;19.026;2023-04-29T08:48:21;99946.66;;;13.94;51.96
68107;BME280;54892;47.488;19.026;2023-04-29T08:51:24;99941.72;;;14.11;53.48
68107;BME280;54892;47.488;19.026;2023-04-29T08:54:29;99940.09;;;14.15;50.46
68107;BME280;54892;47.488;19.026;2023-04-29T08:57:34;99949.44;;;13.78;49.89
68107;BME280;54892;47.488;19.026;2023-04-29T09:00:40;99947.69;;;13.98;51.15
68107;BME280;54892;47.488;19.026;2023-04-29T09:03:48;99943.44;;;14.26;50.13
68107;BME280;54892;47.488;19.026;2023-04-29T09:06:54;99942.44;;;14.22;50.13
68107;BME280;54892;47.488;19.026;2023-04-29T09:09:57;99946.88;;;14.27;50.09
68107;BME280;54892;47.488;19.026;2023-04-29T09:13:00;99945.88;;;14.47;50.92
68107;BME280;54892;47.488;19.026;2023-04-29T09:16:04;99949.38;;;14.42;49.76
68107;BME280;54892;47.488;19.026;2023-04-29T09:19:08;99959.78;;;14.39;50.04
68107;BME280;54892;47.488;19.026;2023-04-29T09:22:11;99955.66;;;14.52;49.10
68107;BME280;54892;47.488;19.026;2023-04-29T09:25:14;99955.81;;;14.36;50.17
68107;BME280;54892;47.488;19.026;2023-04-29T09:28:17;99952.09;;;14.37;49.67
68107;BME280;54892;47.488;19.026;2023-04-29T09:31:26;99953.56;;;14.49;49.11
68107;BME280;54892;47.488;19.026;2023-04-29T09:34:31;99954.47;;;14.39;49.13
68107;BME280;54892;47.488;19.026;2023-04-29T09:37:35;99943.72;;;14.49;51.29
68107;BME280;54892;47.488;19.026;2023-04-29T09:40:39;99952.12;;;14.56;49.27
68107;BME280;54892;47.488;19.026;2023-04-29T09:43:55;99951.00;;;14.68;48.35
68107;BME280;54892;47.488;19.026;2023-04-29T09:47:05;99953.50;;;14.54;49.00
68107;BME280;54892;47.488;19.026;2023-04-29T09:50:13;99947.50;;;14.72;49.00
68107;BME280;54892;47.488;19.026;2023-04-29T09:53:26;99944.44;;;14.84;49.82
68107;BME280;54892;47.488;19.026;2023-04-29T09:56:33;99937.34;;;14.99;48.35
68107;BME280;54892;47.488;19.026;2023-04-29T09:59:50;99939.84;;;15.09;46.95
68107;BME280;54892;47.488;19.026;2023-04-29T10:02:53;99935.41;;;15.23;45.94
68107;BME280;54892;47.488;19.026;2023-04-29T10:06:00;99928.47;;;15.42;45.44
68107;BME280;54892;47.488;19.026;2023-04-29T10:09:04;99935.28;;;15.67;45.31
68107;BME280;54892;47.488;19.026;2023-04-29T10:12:07;99946.75;;;16.01;47.51
68107;BME280;54892;47.488;19.026;2023-04-29T10:15:12;99931.87;;;16.00;43.26
68107;BME280;54892;47.488;19.026;2023-04-29T10:18:20;99930.91;;;16.23;42.30
68107;BME280;54892;47.488;19.026;2023-04-29T10:21:26;99931.59;;;16.29;42.25
68107;BME280;54892;47.488;19.026;2023-04-29T10:24:29;99934.88;;;16.40;42.57
68107;BME280;54892;47.488;19.026;2023-04-29T10:27:34;99940.78;;;16.37;42.95
68107;BME280;54892;47.488;19.026;2023-04-29T10:30:39;99934.25;;;16.29;42.29
68107;BME280;54892;47.488;19.026;2023-04-29T10:33:44;99930.03;;;16.28;42.60
68107;BME280;54892;47.488;19.026;2023-04-29T10:36:50;99928.28;;;15.90;41.65
68107;BME280;54892;47.488;19.026;2023-04-29T10:39:55;99926.53;;;16.00;43.10
68107;BME280;54892;47.488;19.026;2023-04-29T10:43:03;99911.06;;;16.02;42.59
68107;BME280;54892;47.488;19.026;2023-04-29T10:46:19;99912.88;;;16.48;42.80
68107;BME280;54892;47.488;19.026;2023-04-29T10:49:22;99900.72;;;16.28;40.98
68107;BME280;54892;47.488;19.026;2023-04-29T10:52:27;99901.91;;;16.36;42.60
68107;BME280;54892;47.488;19.026;2023-04-29T10:55:30;99894.19;;;16.62;42.81
68107;BME280;54892;47.488;19.026;2023-04-29T10:58:42;99896.38;;;16.60;40.75
68107;BME280;54892;47.488;19.026;2023-04-29T11:01:47;99892.06;;;16.50;40.49
68107;BME280;54892;47.488;19.026;2023-04-29T11:05:05;99875.12;;;16.69;40.73
68107;BME280;54892;47.488;19.026;2023-04-29T11:08:10;99873.97;;;16.75;41.96
68107;BME280;54892;47.488;19.026;2023-04-29T11:11:13;99873.06;;;16.80;41.32
68107;BME280;54892;47.488;19.026;2023-04-29T11:14:20;99865.72;;;16.85;40.28
68107;BME280;54892;47.488;19.026;2023-04-29T11:17:23;99861.38;;;16.89;40.06
68107;BME280;54892;47.488;19.026;2023-04-29T11:20:27;99854.75;;;17.01;41.21
68107;BME280;54892;47.488;19.026;2023-04-29T11:23:34;99853.25;;;17.09;40.64
68107;BME280;54892;47.488;19.026;2023-04-29T11:26:37;99850.91;;;17.07;40.75
68107;BME280;54892;47.488;19.026;2023-04-29T11:29:41;99857.94;;;17.26;40.43
68107;BME280;54892;47.488;19.026;2023-04-29T11:32:43;99854.53;;;17.34;39.24
68107;BME280;54892;47.488;19.026;2023-04-29T11:35:47;99850.22;;;17.24;39.32
68107;BME280;54892;47.488;19.026;2023-04-29T11:38:51;99856.22;;;17.07;40.58
68107;BME280;54892;47.488;19.026;2023-04-29T11:42:01;99851.56;;;17.13;42.33
68107;BME280;54892;47.488;19.026;2023-04-29T11:45:05;99851.84;;;17.34;40.90
68107;BME280;54892;47.488;19.026;2023-04-29T11:48:08;99862.53;;;17.57;39.37
68107;BME280;54892;47.488;19.026;2023-04-29T11:51:11;99852.47;;;17.54;41.84
68107;BME280;54892;47.488;19.026;2023-04-29T11:54:15;99851.75;;;17.39;41.88
68107;BME280;54892;47.488;19.026;2023-04-29T11:57:18;99848.31;;;17.47;40.53
68107;BME280;54892;47.488;19.026;2023-04-29T12:00:21;99848.44;;;17.65;41.70
68107;BME280;54892;47.488;19.026;2023-04-29T12:03:24;99852.72;;;17.75;42.81
68107;BME280;54892;47.488;19.026;2023-04-29T12:06:27;99832.84;;;17.90;41.35
68107;BME280;54892;47.488;19.026;2023-04-29T12:09:41;99847.87;;;18.17;41.05
68107;BME280;54892;47.488;19.026;2023-04-29T12:12:45;99844.16;;;18.27;39.96
68107;BME280;54892;47.488;19.026;2023-04-29T12:15:49;99845.38;;;18.12;40.33
68107;BME280;54892;47.488;19.026;2023-04-29T12:18:53;99838.25;;;18.07;40.30
68107;BME280;54892;47.488;19.026;2023-04-29T12:21:57;99842.38;;;18.14;40.06
68107;BME280;54892;47.488;19.026;2023-04-29T12:25:03;99838.97;;;18.39;38.45
68107;BME280;54892;47.488;19.026;2023-04-29T12:28:10;99833.59;;;18.13;39.11
68107;BME280;54892;47.488;19.026;2023-04-29T12:31:13;99829.38;;;17.89;41.50
68107;BME280;54892;47.488;19.026;2023-04-29T12:34:16;99834.97;;;18.10;40.80
68107;BME280;54892;47.488;19.026;2023-04-29T12:37:20;99827.97;;;18.23;39.88
68107;BME280;54892;47.488;19.026;2023-04-29T12:40:24;99828.94;;;18.45;40.42
68107;BME280;54892;47.488;19.026;2023-04-29T12:43:28;99826.91;;;18.42;40.33
68107;BME280;54892;47.488;19.026;2023-04-29T12:46:33;99815.28;;;18.47;41.05
68107;BME280;54892;47.488;19.026;2023-04-29T12:49:36;99827.38;;;18.44;39.94
68107;BME280;54892;47.488;19.026;2023-04-29T12:52:40;99815.88;;;18.35;40.47
68107;BME280;54892;47.488;19.026;2023-04-29T12:55:44;99805.34;;;18.47;41.23
68107;BME280;54892;47.488;19.026;2023-04-29T12:58:47;99800.50;;;18.67;40.73
68107;BME280;54892;47.488;19.026;2023-04-29T13:01:50;99797.81;;;18.58;40.22
68107;BME280;54892;47.488;19.026;2023-04-29T13:04:53;99793.88;;;18.47;40.62
68107;BME280;54892;47.488;19.026;2023-04-29T13:07:56;99791.81;;;18.35;40.61
68107;BME280;54892;47.488;19.026;2023-04-29T13:11:01;99786.47;;;18.35;39.77
68107;BME280;54892;47.488;19.026;2023-04-29T13:14:04;99788.53;;;18.29;41.30
68107;BME280;54892;47.488;19.026;2023-04-29T13:17:06;99785.84;;;18.29;41.75
68107;BME280;54892;47.488;19.026;2023-04-29T13:20:11;99783.66;;;18.31;41.53
68107;BME280;54892;47.488;19.026;2023-04-29T13:23:15;99776.12;;;18.51;41.46
68107;BME280;54892;47.488;19.026;2023-04-29T13:26:20;99774.38;;;18.72;39.61
68107;BME280;54892;47.488;19.026;2023-04-29T13:29:24;99776.59;;;18.97;39.15
68107;BME280;54892;47.488;19.026;2023-04-29T13:32:28;99767.16;;;18.91;39.94
68107;BME280;54892;47.488;19.026;2023-04-29T13:35:38;99769.53;;;18.75;40.84
68107;BME280;54892;47.488;19.026;2023-04-29T13:38:42;99762.13;;;18.71;39.80
68107;BME280;54892;47.488;19.026;2023-04-29T13:41:47;99765.44;;;18.51;40.39
68107;BME280;54892;47.488;19.026;2023-04-29T13:44:50;99760.06;;;18.24;41.01
68107;BME280;54892;47.488;19.026;2023-04-29T13:47:58;99754.28;;;18.40;40.79
68107;BME280;54892;47.488;19.026;2023-04-29T13:51:04;99745.28;;;18.09;41.00
68107;BME280;54892;47.488;19.026;2023-04-29T13:54:11;99743.88;;;18.30;42.21
68107;BME280;54892;47.488;19.026;2023-04-29T13:57:18;99741.22;;;18.21;41.15
68107;BME280;54892;47.488;19.026;2023-04-29T14:00:24;99749.06;;;18.35;40.78
68107;BME280;54892;47.488;19.026;2023-04-29T14:03:45;99752.22;;;18.72;40.65
68107;BME280;54892;47.488;19.026;2023-04-29T14:06:48;99748.47;;;18.64;41.33
68107;BME280;54892;47.488;19.026;2023-04-29T14:09:51;99745.31;;;18.45;40.68
68107;BME280;54892;47.488;19.026;2023-04-29T14:12:55;99755.84;;;18.41;41.23
68107;BME280;54892;47.488;19.026;2023-04-29T14:15:59;99757.09;;;18.44;40.67
68107;BME280;54892;47.488;19.026;2023-04-29T14:19:04;99749.06;;;18.26;41.64
68107;BME280;54892;47.488;19.026;2023-04-29T14:22:08;99743.91;;;18.21;41.57
68107;BME280;54892;47.488;19.026;2023-04-29T14:25:11;99741.84;;;18.18;41.87
68107;BME280;54892;47.488;19.026;2023-04-29T14:28:15;99732.88;;;18.22;43.47
68107;BME280;54892;47.488;19.026;2023-04-29T14:31:18;99738.69;;;18.16;42.36
68107;BME280;54892;47.488;19.026;2023-04-29T14:34:21;99737.72;;;18.11;42.29
68107;BME280;54892;47.488;19.026;2023-04-29T14:37:24;99726.09;;;18.07;42.40
68107;BME280;54892;47.488;19.026;2023-04-29T14:40:28;99733.22;;;18.21;42.66
68107;BME280;54892;47.488;19.026;2023-04-29T14:43:32;99723.91;;;18.09;43.07
68107;BME280;54892;47.488;19.026;2023-04-29T14:46:37;99727.53;;;18.22;42.08
68107;BME280;54892;47.488;19.026;2023-04-29T14:49:40;99727.84;;;18.12;44.20
68107;BME280;54892;47.488;19.026;2023-04-29T14:52:43;99729.25;;;18.09;43.75
68107;BME280;54892;47.488;19.026;2023-04-29T14:55:46;99733.00;;;18.08;42.50
68107;BME280;54892;47.488;19.026;2023-04-29T14:58:52;99737.09;;;18.06;42.42
68107;BME280;54892;47.488;19.026;2023-04-29T15:01:54;99742.59;;;18.01;41.99
68107;BME280;54892;47.488;19.026;2023-04-29T15:04:57;99739.00;;;18.05;43.07
68107;BME280;54892;47.488;19.026;2023-04-29T15:08:01;99744.78;;;18.07;41.86
68107;BME280;54892;47.488;19.026;2023-04-29T15:11:04;99741.66;;;18.23;42.02
68107;BME280;54892;47.488;19.026;2023-04-29T15:14:08;99739.00;;;18.23;41.72
68107;BME280;54892;47.488;19.026;2023-04-29T15:17:11;99733.66;;;18.23;42.04
68107;BME280;54892;47.488;19.026;2023-04-29T15:20:14;99734.94;;;18.25;42.05
68107;BME280;54892;47.488;19.026;2023-04-29T15:23:17;99734.31;;;18.20;43.07
68107;BME280;54892;47.488;19.026;2023-04-29T15:26:20;99735.69;;;18.08;42.69
68107;BME280;54892;47.488;19.026;2023-04-29T15:29:24;99736.13;;;18.02;42.78
68107;BME280;54892;47.488;19.026;2023-04-29T15:32:28;99737.56;;;17.99;41.90
68107;BME280;54892;47.488;19.026;2023-04-29T15:35:33;99735.22;;;17.98;42.18
68107;BME280;54892;47.488;19.026;2023-04-29T15:38:36;99731.56;;;17.93;42.44
68107;BME280;54892;47.488;19.026;2023-04-29T15:41:39;99731.69;;;17.88;42.74
68107;BME280;54892;47.488;19.026;2023-04-29T15:44:44;99732.78;;;17.87;43.12
68107;BME280;54892;47.488;19.026;2023-04-29T15:47:47;99738.94;;;17.88;43.98
68107;BME280;54892;47.488;19.026;2023-04-29T15:50:50;99719.31;;;17.92;44.11
68107;BME280;54892;47.488;19.026;2023-04-29T15:53:54;99717.94;;;18.04;44.45
68107;BME280;54892;47.488;19.026;2023-04-29T15:56:56;99713.47;;;17.81;43.71
68107;BME280;54892;47.488;19.026;2023-04-29T16:00:00;99715.16;;;17.77;43.42
68107;BME280;54892;47.488;19.026;2023-04-29T16:03:05;99721.59;;;17.76;43.90